KOBE/OBE METAR and TAF weather

Enter ICAO airport designator
Station Type Date Time Source
KOBE METAR 2020/01/21 15:35 UTC NOAA

KOBE 211535Z AUTO 34011G16KT 10SM CLR 12/06 A3019 RMK AO2


Station Type Date Time Source
KOBE Decoded METAR 2020/01/21 15:35 UTC NOAA

Okeechobee County Airport, FL, United States (KOBE) 27-15-60N 080-51-02W
Jan 21, 2020 - 10:35 AM EST / 2020.01.21 1535 UTC
Wind: from the NNW (340 degrees) at 13 MPH (11 KT) gusting to 18 MPH (16 KT):0
Visibility: 10 mile(s):0
Sky conditions: clear
Temperature: 53 F (12 C)
Dew Point: 42 F (6 C)
Relative Humidity: 66%
Pressure (altimeter): 30.19 in. Hg (1022 hPa)
ob: KOBE 211535Z AUTO 34011G16KT 10SM CLR 12/06 A3019 RMK AO2
cycle: 15

Station Type Date Time Source
KOBE TAF UTC NOAA

Error!

Example: see airport list